createdAt,value
2019-03-25T00:00:50.576Z,4.37
2019-03-25T00:05:55.863Z,4.13
2019-03-25T00:11:01.343Z,3.80
2019-03-25T00:16:06.730Z,3.70
2019-03-25T00:21:11.946Z,3.83
2019-03-25T00:26:17.195Z,3.50
2019-03-25T00:31:22.701Z,3.65
2019-03-25T00:36:27.943Z,3.33
2019-03-25T00:41:33.172Z,3.63
2019-03-25T00:46:38.441Z,3.50
2019-03-25T00:51:43.724Z,3.20
2019-03-25T00:56:49.037Z,3.20
2019-03-25T01:01:54.310Z,3.33
2019-03-25T01:06:59.536Z,3.27
2019-03-25T01:12:05.432Z,3.10
2019-03-25T01:17:10.761Z,2.90
2019-03-25T01:22:16.006Z,3.37
2019-03-25T01:27:21.278Z,3.23
2019-03-25T01:32:26.474Z,3.07
2019-03-25T01:37:31.798Z,3.03
2019-03-25T01:42:37.100Z,3.23
2019-03-25T01:47:42.414Z,3.57
2019-03-25T01:52:47.730Z,4.00
2019-03-25T01:57:53.041Z,2.77
2019-03-25T02:02:58.268Z,3.20
2019-03-25T02:08:03.576Z,2.50
2019-03-25T02:13:08.817Z,3.17
2019-03-25T02:18:14.469Z,2.80
2019-03-25T02:23:20.739Z,3.60
2019-03-25T02:28:26.078Z,3.57
2019-03-25T02:33:31.330Z,2.50
2019-03-25T02:38:36.598Z,3.13
2019-03-25T02:43:41.869Z,2.90
2019-03-25T02:48:47.244Z,2.93
2019-03-25T02:53:52.951Z,2.70
2019-03-25T02:58:58.266Z,3.43
2019-03-25T03:04:03.635Z,3.13
2019-03-25T03:09:10.465Z,2.90
2019-03-25T03:14:15.695Z,2.70
2019-03-25T03:19:20.956Z,2.70
2019-03-25T03:24:26.243Z,2.90
2019-03-25T03:29:31.544Z,2.60
2019-03-25T03:34:36.846Z,2.90
2019-03-25T03:39:42.159Z,2.80
2019-03-25T03:44:47.400Z,3.37
2019-03-25T03:49:52.704Z,3.30
2019-03-25T03:54:58.011Z,2.70
2019-03-25T04:00:03.706Z,2.80
2019-03-25T04:05:09.048Z,2.93
2019-03-25T04:10:14.483Z,3.10
2019-03-25T04:15:27.422Z,3.45
2019-03-25T04:20:32.702Z,3.27
2019-03-25T04:25:37.965Z,3.83
2019-03-25T04:30:43.283Z,3.37
2019-03-25T04:35:48.532Z,3.40
2019-03-25T04:40:53.723Z,3.40
2019-03-25T04:45:59.072Z,3.60
2019-03-25T04:51:05.106Z,3.75
2019-03-25T04:56:10.428Z,3.72
2019-03-25T05:01:15.684Z,3.33
2019-03-25T05:06:21.693Z,3.40
2019-03-25T05:11:30.752Z,3.50
2019-03-25T05:16:39.175Z,3.30
2019-03-25T05:21:51.836Z,3.90
2019-03-25T05:26:56.943Z,3.73
2019-03-25T05:32:02.205Z,3.30
2019-03-25T05:37:07.573Z,3.70
2019-03-25T05:42:13.199Z,3.40
2019-03-25T05:47:18.502Z,3.77
2019-03-25T05:52:24.331Z,3.83
2019-03-25T05:57:29.709Z,4.17
2019-03-25T06:02:35.124Z,4.10
2019-03-25T06:07:40.576Z,3.97
2019-03-25T06:12:45.982Z,4.10
2019-03-25T06:17:51.424Z,4.30
2019-03-25T06:22:57.060Z,4.33
2019-03-25T06:28:03.450Z,4.77
2019-03-25T06:33:12.613Z,4.33
2019-03-25T06:38:16.153Z,4.90
2019-03-25T06:43:21.651Z,4.60
2019-03-25T06:48:27.451Z,4.57
2019-03-25T06:53:32.876Z,4.33
2019-03-25T06:58:38.258Z,4.33
2019-03-25T07:03:43.658Z,4.17
2019-03-25T07:08:49.051Z,4.20
2019-03-25T07:13:54.778Z,3.47
2019-03-25T07:19:00.170Z,3.33
2019-03-25T07:24:08.851Z,3.10
2019-03-25T07:29:14.246Z,3.20
2019-03-25T07:34:19.603Z,3.70
2019-03-25T07:39:24.953Z,3.47
2019-03-25T07:44:30.445Z,4.23
2019-03-25T07:49:35.905Z,3.70
2019-03-25T07:54:41.381Z,4.67
2019-03-25T07:59:47.175Z,4.20
2019-03-25T08:04:52.653Z,3.97
2019-03-25T08:09:59.361Z,3.67
2019-03-25T08:15:05.025Z,3.70
2019-03-25T08:20:10.812Z,3.67
2019-03-25T08:25:16.494Z,3.97
2019-03-25T08:30:22.013Z,3.87
2019-03-25T08:35:28.654Z,3.70
2019-03-25T08:40:34.395Z,3.50
2019-03-25T08:45:39.615Z,3.30
2019-03-25T08:50:44.916Z,3.53
2019-03-25T08:55:50.188Z,3.20
2019-03-25T09:00:55.391Z,3.60
2019-03-25T09:06:00.696Z,3.07
2019-03-25T09:11:07.079Z,3.30
2019-03-25T09:16:15.285Z,3.20
2019-03-25T09:21:20.533Z,3.20
2019-03-25T09:26:25.814Z,3.03
2019-03-25T09:31:36.802Z,2.87
2019-03-25T09:36:38.033Z,3.17
2019-03-25T09:41:44.308Z,2.43
2019-03-25T09:46:49.629Z,2.77
2019-03-25T09:51:54.949Z,2.17
2019-03-25T09:57:00.150Z,2.30
2019-03-25T10:02:06.079Z,1.73
2019-03-25T10:07:20.517Z,2.40
2019-03-25T10:12:25.816Z,1.93
2019-03-25T10:17:31.305Z,1.80
2019-03-25T10:22:36.575Z,2.20
2019-03-25T10:27:41.851Z,2.00
2019-03-25T10:32:47.086Z,1.90
2019-03-25T10:37:52.395Z,1.70
2019-03-25T10:42:57.622Z,2.20
2019-03-25T10:48:02.906Z,2.40
2019-03-25T10:53:08.123Z,1.40
2019-03-25T10:58:13.416Z,1.80
2019-03-25T11:03:18.634Z,1.50
2019-03-25T11:08:26.716Z,1.90
2019-03-25T11:13:31.923Z,1.77
2019-03-25T11:18:37.122Z,1.27
2019-03-25T11:23:42.328Z,1.30
2019-03-25T11:28:47.565Z,1.47
2019-03-25T11:33:52.791Z,1.37
2019-03-25T11:38:58.736Z,1.10
2019-03-25T11:44:05.280Z,1.63
2019-03-25T11:49:10.586Z,1.30
2019-03-25T11:54:15.774Z,1.13
2019-03-25T11:59:21.042Z,1.40
2019-03-25T12:04:26.342Z,1.37
2019-03-25T12:09:31.559Z,1.20
2019-03-25T12:14:36.779Z,1.30
2019-03-25T12:19:42.077Z,1.00
2019-03-25T12:24:47.365Z,1.20
2019-03-25T12:29:52.590Z,1.00
2019-03-25T12:34:57.791Z,1.20
2019-03-25T12:40:03.403Z,1.03
2019-03-25T12:45:09.171Z,0.90
2019-03-25T12:50:14.567Z,1.10
2019-03-25T12:55:19.852Z,0.90
2019-03-25T13:00:39.447Z,0.80
2019-03-25T13:05:45.009Z,1.10
2019-03-25T13:10:50.635Z,1.30
2019-03-25T13:15:56.075Z,0.90
2019-03-25T13:21:01.578Z,0.90
2019-03-25T13:26:08.020Z,1.37
2019-03-25T13:31:13.508Z,1.00
2019-03-25T13:36:19.037Z,0.90
2019-03-25T13:41:24.354Z,1.10
2019-03-25T13:46:29.658Z,1.60
2019-03-25T13:51:35.188Z,1.30
2019-03-25T13:56:40.820Z,1.30
2019-03-25T14:01:47.090Z,1.00
2019-03-25T14:06:52.330Z,1.00
2019-03-25T14:11:57.559Z,1.10
2019-03-25T14:17:02.778Z,1.17
2019-03-25T14:22:08.309Z,0.93
2019-03-25T14:27:13.528Z,1.07
2019-03-25T14:32:18.751Z,0.97
2019-03-25T14:37:24.043Z,1.10
2019-03-25T14:42:29.376Z,1.50
2019-03-25T14:47:34.662Z,2.27
2019-03-25T14:52:39.884Z,1.50
2019-03-25T14:57:45.247Z,1.27
2019-03-25T15:02:50.638Z,1.33
2019-03-25T15:07:55.844Z,0.90
2019-03-25T15:13:01.044Z,0.93
2019-03-25T15:18:15.234Z,1.20
2019-03-25T15:23:13.832Z,0.90
2019-03-25T15:28:19.115Z,1.20
2019-03-25T15:33:24.394Z,1.03
2019-03-25T15:38:29.674Z,1.10
2019-03-25T15:43:34.884Z,1.17
2019-03-25T15:48:40.100Z,1.00
2019-03-25T15:53:45.428Z,0.97
2019-03-25T15:58:50.648Z,0.97
2019-03-25T16:03:55.936Z,0.80
2019-03-25T16:09:01.201Z,1.10
2019-03-25T16:14:06.866Z,1.97
2019-03-25T16:19:12.086Z,1.40
2019-03-25T16:24:17.380Z,1.27
2019-03-25T16:29:22.581Z,1.17
2019-03-25T16:34:27.818Z,1.10
2019-03-25T16:39:33.304Z,1.13
2019-03-25T16:44:38.600Z,1.57
2019-03-25T16:49:44.113Z,1.33
2019-03-25T16:54:51.043Z,1.30
2019-03-25T16:59:56.288Z,1.43
2019-03-25T17:05:01.559Z,1.80
2019-03-25T17:10:08.023Z,1.20
2019-03-25T17:15:13.763Z,1.47
2019-03-25T17:20:18.994Z,1.37
2019-03-25T17:25:24.578Z,1.55
2019-03-25T17:30:29.793Z,1.30
2019-03-25T17:35:35.107Z,1.60
2019-03-25T17:40:40.331Z,1.27
2019-03-25T17:45:45.539Z,1.43
2019-03-25T17:50:52.889Z,1.70
2019-03-25T17:55:58.017Z,1.40
2019-03-25T18:01:33.629Z,1.50
2019-03-25T18:06:39.003Z,1.60
2019-03-25T18:11:44.337Z,1.40
2019-03-25T18:16:49.581Z,1.50
2019-03-25T18:21:55.048Z,1.43
2019-03-25T18:27:00.348Z,1.63
2019-03-25T18:32:05.565Z,1.73
2019-03-25T18:37:10.824Z,1.80
2019-03-25T18:42:16.096Z,1.80
2019-03-25T18:47:21.421Z,1.30
2019-03-25T18:52:26.727Z,1.30
2019-03-25T18:57:32.035Z,1.53
2019-03-25T19:02:37.410Z,2.00
2019-03-25T19:07:44.862Z,1.97
2019-03-25T19:12:50.090Z,1.37
2019-03-25T19:17:55.347Z,1.50
2019-03-25T19:23:00.668Z,1.63
2019-03-25T19:28:06.262Z,1.30
2019-03-25T19:33:21.209Z,1.50
2019-03-25T19:38:28.161Z,1.70
2019-03-25T19:43:33.449Z,1.40
2019-03-25T19:48:38.751Z,1.10
2019-03-25T19:53:44.390Z,1.40
2019-03-25T19:58:49.677Z,2.17
2019-03-25T20:03:55.118Z,2.50
2019-03-25T20:09:00.562Z,1.63
2019-03-25T20:14:05.942Z,1.70
2019-03-25T20:19:11.211Z,1.57
2019-03-25T20:24:16.563Z,1.70
2019-03-25T20:29:22.197Z,1.90
2019-03-25T20:34:28.461Z,1.80
2019-03-25T20:39:33.887Z,1.70
2019-03-25T20:44:39.188Z,1.60
2019-03-25T20:49:44.430Z,1.70
2019-03-25T20:54:49.795Z,1.70
2019-03-25T20:59:55.158Z,1.93
2019-03-25T21:05:00.531Z,2.10
2019-03-25T21:10:07.063Z,1.87
2019-03-25T21:15:12.556Z,2.10
2019-03-25T21:20:17.855Z,1.70
2019-03-25T21:25:23.154Z,1.90
2019-03-25T21:30:28.520Z,1.57
2019-03-25T21:35:33.867Z,2.23
2019-03-25T21:40:39.227Z,1.67
2019-03-25T21:45:44.603Z,2.20
2019-03-25T21:50:49.957Z,1.93
2019-03-25T21:55:55.500Z,1.83
2019-03-25T22:01:00.704Z,2.00
2019-03-25T22:06:06.001Z,2.23
2019-03-25T22:11:11.216Z,1.70
2019-03-25T22:16:16.416Z,2.10
2019-03-25T22:21:21.929Z,2.10
2019-03-25T22:26:27.148Z,1.93
2019-03-25T22:31:32.356Z,2.00
2019-03-25T22:36:37.565Z,2.00
2019-03-25T22:41:43.110Z,2.10
2019-03-25T22:46:48.416Z,2.57
2019-03-25T22:51:53.737Z,2.10
2019-03-25T22:56:58.941Z,2.20
2019-03-25T23:02:05.920Z,2.60
2019-03-25T23:07:11.124Z,2.80
2019-03-25T23:12:16.427Z,2.50
2019-03-25T23:17:21.622Z,2.50
2019-03-25T23:22:26.911Z,2.57
2019-03-25T23:27:32.139Z,2.73
2019-03-25T23:32:37.432Z,3.33
2019-03-25T23:37:42.694Z,2.97
2019-03-25T23:42:48.235Z,3.60
2019-03-25T23:47:53.494Z,3.30
2019-03-25T23:52:58.957Z,3.90
2019-03-25T23:58:05.058Z,3.50
